Thai Muang, Thailand
Current Conditions -  °F | °C
As of 7:30 PM on Tuesday 27 Jan 2015 (Local Time) from VTSP Reporting Station
Broken Clouds Broken Clouds  
Wind Chill: 81°   Ceiling: 30000
Heat Index: 84°   Visibility: 4mi
Dew Point: 70°   Wind: 5mph
Humidity: 70%   Direction: 290°WNW
Pressure: 29.83"   Gusts: NA
Location:  8.39°N, 98.26°E
Report Text: VTSP 271230Z 29004KT 7000 FEW020 BKN300 27/21 Q1010 A2984NOSIG
Loading
Personal Weather Stations






























Interactive Weather Map New forecast layout! Learn more

10-Day Weather Forecast

Advertisements
Track Severe Weather on mobile